createdAt,value
2022-12-12T00:00:30.914Z,1003.39
2022-12-12T00:01:30.918Z,1003.37
2022-12-12T00:02:31.021Z,1003.38
2022-12-12T00:03:31.058Z,1003.38
2022-12-12T00:04:30.935Z,1003.32
2022-12-12T00:05:30.942Z,1003.35
2022-12-12T00:06:30.946Z,1003.33
2022-12-12T00:07:30.953Z,1003.36
2022-12-12T00:08:31.063Z,1003.33
2022-12-12T00:09:30.965Z,1003.34
2022-12-12T00:10:30.970Z,1003.32
2022-12-12T00:11:30.976Z,1003.32
2022-12-12T00:12:30.981Z,1003.31
2022-12-12T00:13:30.987Z,1003.32
2022-12-12T00:14:30.992Z,1003.35
2022-12-12T00:15:31.162Z,1003.31
2022-12-12T00:16:31.005Z,1003.29
2022-12-12T00:17:31.008Z,1003.29
2022-12-12T00:18:31.015Z,1003.28
2022-12-12T00:19:31.021Z,1003.28
2022-12-12T00:20:31.026Z,1003.23
2022-12-12T00:21:31.030Z,1003.19
2022-12-12T00:22:31.036Z,1003.20
2022-12-12T00:23:31.042Z,1003.15
2022-12-12T00:24:31.046Z,1003.10
2022-12-12T00:25:31.054Z,1003.09
2022-12-12T00:26:31.061Z,1003.00
2022-12-12T00:27:31.068Z,1002.96
2022-12-12T00:28:31.068Z,1002.94
2022-12-12T00:29:31.078Z,1002.87
2022-12-12T00:30:31.081Z,1002.88
2022-12-12T00:31:31.129Z,1002.92
2022-12-12T00:32:31.093Z,1002.94
2022-12-12T00:33:31.098Z,1003.03
2022-12-12T00:34:31.107Z,1003.09
2022-12-12T00:35:31.112Z,1003.15
2022-12-12T00:36:31.113Z,1003.16
2022-12-12T00:37:31.121Z,1003.21
2022-12-12T00:38:31.124Z,1003.21
2022-12-12T00:39:31.191Z,1003.19
2022-12-12T00:40:31.140Z,1003.24
2022-12-12T00:41:31.164Z,1003.21
2022-12-12T00:42:31.168Z,1003.24
2022-12-12T00:43:31.159Z,1003.22
2022-12-12T00:44:31.156Z,1003.24
2022-12-12T00:45:31.169Z,1003.24
2022-12-12T00:46:31.257Z,1003.26
2022-12-12T00:47:31.181Z,1003.26
2022-12-12T00:48:31.181Z,1003.28
2022-12-12T00:49:31.185Z,1003.19
2022-12-12T00:50:31.194Z,1003.25
2022-12-12T00:51:31.212Z,1003.19
2022-12-12T00:52:31.206Z,1003.18
2022-12-12T00:53:31.218Z,1003.15
2022-12-12T00:54:31.221Z,1003.13
2022-12-12T00:55:31.226Z,1003.13
2022-12-12T00:56:31.229Z,1003.15
2022-12-12T00:57:31.228Z,1003.16
2022-12-12T00:58:31.235Z,1003.16
2022-12-12T00:59:31.238Z,1003.19
2022-12-12T01:00:31.245Z,1003.13
2022-12-12T01:01:31.319Z,1003.15
2022-12-12T01:02:31.310Z,1003.17
2022-12-12T01:03:31.266Z,1003.19
2022-12-12T01:04:31.275Z,1003.22
2022-12-12T01:05:31.292Z,1003.20
2022-12-12T01:06:31.313Z,1003.17
2022-12-12T01:07:31.296Z,1003.13
2022-12-12T01:08:31.293Z,1003.16
2022-12-12T01:09:31.295Z,1003.23
2022-12-12T01:10:31.303Z,1003.22
2022-12-12T01:11:31.305Z,1003.24
2022-12-12T01:12:31.310Z,1003.25
2022-12-12T01:13:31.315Z,1003.20
2022-12-12T01:14:31.322Z,1003.21
2022-12-12T01:15:31.326Z,1003.19
2022-12-12T01:16:31.415Z,1003.21
2022-12-12T01:17:31.339Z,1003.24
2022-12-12T01:18:31.342Z,1003.27
2022-12-12T01:19:31.345Z,1003.27
2022-12-12T01:20:31.352Z,1003.33
2022-12-12T01:21:31.358Z,1003.33
2022-12-12T01:22:31.365Z,1003.29
2022-12-12T01:23:31.370Z,1003.29
2022-12-12T01:24:31.377Z,1003.31
2022-12-12T01:25:31.380Z,1003.29
2022-12-12T01:26:31.389Z,1003.32
2022-12-12T01:27:31.394Z,1003.30
2022-12-12T01:28:31.396Z,1003.33
2022-12-12T01:29:31.402Z,1003.35
2022-12-12T01:30:31.409Z,1003.32
2022-12-12T01:31:31.460Z,1003.31
2022-12-12T01:32:31.417Z,1003.30
2022-12-12T01:33:31.424Z,1003.33
2022-12-12T01:34:31.430Z,1003.32
2022-12-12T01:35:31.436Z,1003.40
2022-12-12T01:36:31.445Z,1003.28
2022-12-12T01:37:31.444Z,1003.28
2022-12-12T01:38:31.450Z,1003.28
2022-12-12T01:39:31.507Z,1003.33
2022-12-12T01:40:31.464Z,1003.34
2022-12-12T01:41:31.467Z,1003.30
2022-12-12T01:42:31.471Z,1003.31
2022-12-12T01:43:31.479Z,1003.28
2022-12-12T01:44:31.484Z,1003.33
2022-12-12T01:45:31.491Z,1003.33
2022-12-12T01:46:31.538Z,1003.40
2022-12-12T01:47:31.501Z,1003.43
2022-12-12T01:48:31.504Z,1003.46
2022-12-12T01:49:31.510Z,1003.44
2022-12-12T01:50:31.517Z,1003.43
2022-12-12T01:51:31.524Z,1003.47
2022-12-12T01:52:31.527Z,1003.49
2022-12-12T01:53:31.534Z,1003.48
2022-12-12T01:54:31.537Z,1003.43
2022-12-12T01:55:31.545Z,1003.51
2022-12-12T01:56:31.548Z,1003.47
2022-12-12T01:57:31.554Z,1003.42
2022-12-12T01:58:31.562Z,1003.43
2022-12-12T01:59:31.567Z,1003.44
2022-12-12T02:00:31.614Z,1003.38
2022-12-12T02:01:31.578Z,1003.42
2022-12-12T02:02:31.607Z,1003.36
2022-12-12T02:03:31.589Z,1003.38
2022-12-12T02:04:31.595Z,1003.37
2022-12-12T02:05:31.599Z,1003.32
2022-12-12T02:06:31.604Z,1003.33
2022-12-12T02:07:31.610Z,1003.36
2022-12-12T02:08:31.655Z,1003.34
2022-12-12T02:09:31.622Z,1003.30
2022-12-12T02:10:31.631Z,1003.28
2022-12-12T02:11:31.633Z,1003.30
2022-12-12T02:12:31.640Z,1003.31
2022-12-12T02:13:31.649Z,1003.24
2022-12-12T02:14:31.647Z,1003.24
2022-12-12T02:15:31.654Z,1003.22
2022-12-12T02:16:31.706Z,1003.17
2022-12-12T02:17:31.669Z,1003.12
2022-12-12T02:18:31.675Z,1003.13
2022-12-12T02:19:31.677Z,1003.08
2022-12-12T02:20:31.682Z,1003.04
2022-12-12T02:21:31.687Z,1003.03
2022-12-12T02:22:31.695Z,1003.03
2022-12-12T02:23:31.700Z,1003.04
2022-12-12T02:24:31.705Z,1003.00
2022-12-12T02:25:31.710Z,1003.06
2022-12-12T02:26:31.716Z,1003.06
2022-12-12T02:27:31.721Z,1003.08
2022-12-12T02:28:31.727Z,1003.11
2022-12-12T02:29:31.733Z,1003.16
2022-12-12T02:30:31.739Z,1003.21
2022-12-12T02:31:31.805Z,1003.23
2022-12-12T02:32:31.750Z,1003.24
2022-12-12T02:33:31.756Z,1003.23
2022-12-12T02:34:31.767Z,1003.26
2022-12-12T02:35:31.768Z,1003.23
2022-12-12T02:36:31.772Z,1003.27
2022-12-12T02:37:31.778Z,1003.29
2022-12-12T02:38:31.789Z,1003.31
2022-12-12T02:39:31.792Z,1003.34
2022-12-12T02:40:31.796Z,1003.34
2022-12-12T02:41:31.802Z,1003.31
2022-12-12T02:42:31.807Z,1003.28
2022-12-12T02:43:31.813Z,1003.28
2022-12-12T02:44:31.819Z,1003.31
2022-12-12T02:45:31.823Z,1003.37
2022-12-12T02:46:31.873Z,1003.35
2022-12-12T02:47:31.834Z,1003.36
2022-12-12T02:48:31.844Z,1003.36
2022-12-12T02:49:31.855Z,1003.35
2022-12-12T02:50:31.853Z,1003.33
2022-12-12T02:51:31.859Z,1003.35
2022-12-12T02:52:31.869Z,1003.30
2022-12-12T02:53:31.871Z,1003.33
2022-12-12T02:54:31.877Z,1003.33
2022-12-12T02:55:36.253Z,1003.36
2022-12-12T02:56:31.889Z,1003.40
2022-12-12T02:57:31.898Z,1003.38
2022-12-12T02:58:31.904Z,1003.38
2022-12-12T02:59:31.906Z,1003.38
2022-12-12T03:00:31.940Z,1003.39
2022-12-12T03:01:31.924Z,1003.37
2022-12-12T03:02:31.925Z,1003.39
2022-12-12T03:03:31.930Z,1003.37
2022-12-12T03:04:31.937Z,1003.36
2022-12-12T03:05:31.941Z,1003.35
2022-12-12T03:06:34.029Z,1003.36
2022-12-12T03:07:31.954Z,1003.38
2022-12-12T03:08:32.011Z,1003.38
2022-12-12T03:09:31.963Z,1003.36
2022-12-12T03:10:31.987Z,1003.35
2022-12-12T03:11:31.976Z,1003.35
2022-12-12T03:12:31.983Z,1003.33
2022-12-12T03:13:31.989Z,1003.38
2022-12-12T03:14:31.993Z,1003.37
2022-12-12T03:15:31.999Z,1003.43
2022-12-12T03:16:32.040Z,1003.39
2022-12-12T03:17:32.012Z,1003.39
2022-12-12T03:18:32.020Z,1003.44
2022-12-12T03:19:32.026Z,1003.40
2022-12-12T03:20:32.029Z,1003.41
2022-12-12T03:21:32.037Z,1003.41
2022-12-12T03:22:32.042Z,1003.43
2022-12-12T03:23:32.047Z,1003.44
2022-12-12T03:24:32.055Z,1003.43
2022-12-12T03:25:32.061Z,1003.45
2022-12-12T03:26:32.066Z,1003.43
2022-12-12T03:27:32.081Z,1003.40
2022-12-12T03:28:32.080Z,1003.45
2022-12-12T03:29:32.084Z,1003.44
2022-12-12T03:30:32.096Z,1003.43
2022-12-12T03:31:32.125Z,1003.46
2022-12-12T03:32:32.101Z,1003.43
2022-12-12T03:33:32.110Z,1003.41
2022-12-12T03:34:32.115Z,1003.42
2022-12-12T03:35:32.120Z,1003.41
2022-12-12T03:36:32.124Z,1003.46
2022-12-12T03:37:32.134Z,1003.46
2022-12-12T03:38:32.141Z,1003.45
2022-12-12T03:39:32.143Z,1003.46
2022-12-12T03:40:32.150Z,1003.43
2022-12-12T03:41:32.158Z,1003.43
2022-12-12T03:42:32.164Z,1003.42
2022-12-12T03:43:32.168Z,1003.44
2022-12-12T03:44:34.474Z,1003.44
2022-12-12T03:45:32.246Z,1003.40
2022-12-12T03:46:32.185Z,1003.39
2022-12-12T03:47:32.193Z,1003.40
2022-12-12T03:48:32.198Z,1003.39
2022-12-12T03:49:32.211Z,1003.35
2022-12-12T03:50:32.212Z,1003.36
2022-12-12T03:51:32.218Z,1003.35
2022-12-12T03:52:32.225Z,1003.33
2022-12-12T03:53:32.231Z,1003.40
2022-12-12T03:54:32.238Z,1003.40
2022-12-12T03:55:32.244Z,1003.39
2022-12-12T03:56:32.249Z,1003.41
2022-12-12T03:57:32.256Z,1003.41
2022-12-12T03:58:32.260Z,1003.44
2022-12-12T03:59:32.268Z,1003.45
2022-12-12T04:00:32.276Z,1003.41
2022-12-12T04:01:32.292Z,1003.43
2022-12-12T04:02:32.334Z,1003.40
2022-12-12T04:03:32.297Z,1003.47
2022-12-12T04:04:32.298Z,1003.46
2022-12-12T04:05:32.304Z,1003.48
2022-12-12T04:06:32.311Z,1003.49
2022-12-12T04:07:32.319Z,1003.45
2022-12-12T04:08:32.347Z,1003.45
2022-12-12T04:09:32.329Z,1003.46
2022-12-12T04:10:32.333Z,1003.44
2022-12-12T04:11:32.340Z,1003.43
2022-12-12T04:12:32.346Z,1003.48
2022-12-12T04:13:32.635Z,1003.48
2022-12-12T04:14:32.360Z,1003.46
2022-12-12T04:15:32.366Z,1003.48
2022-12-12T04:16:32.389Z,1003.47
2022-12-12T04:17:32.380Z,1003.46
2022-12-12T04:18:32.385Z,1003.51
2022-12-12T04:19:32.394Z,1003.49
2022-12-12T04:20:32.398Z,1003.46
2022-12-12T04:21:32.405Z,1003.48
2022-12-12T04:22:32.411Z,1003.49
2022-12-12T04:23:32.416Z,1003.45
2022-12-12T04:24:32.422Z,1003.45
2022-12-12T04:25:32.429Z,1003.42
2022-12-12T04:26:32.444Z,1003.43
2022-12-12T04:27:32.442Z,1003.41
2022-12-12T04:28:32.447Z,1003.43
2022-12-12T04:29:32.454Z,1003.41
2022-12-12T04:30:32.466Z,1003.42
2022-12-12T04:31:32.514Z,1003.36
2022-12-12T04:32:32.473Z,1003.36
2022-12-12T04:33:32.481Z,1003.37
2022-12-12T04:34:32.489Z,1003.35
2022-12-12T04:35:32.494Z,1003.38
2022-12-12T04:36:32.500Z,1003.37
2022-12-12T04:37:32.507Z,1003.35
2022-12-12T04:38:32.512Z,1003.37
2022-12-12T04:39:32.520Z,1003.38
2022-12-12T04:40:32.525Z,1003.36
2022-12-12T04:41:32.531Z,1003.33
2022-12-12T04:42:32.539Z,1003.38
2022-12-12T04:43:32.543Z,1003.37
2022-12-12T04:44:32.552Z,1003.38
2022-12-12T04:45:32.612Z,1003.40
2022-12-12T04:46:32.565Z,1003.40
2022-12-12T04:47:32.577Z,1003.39
2022-12-12T04:48:35.698Z,1003.40
2022-12-12T04:49:32.582Z,1003.40
2022-12-12T04:50:32.590Z,1003.40
2022-12-12T04:51:32.597Z,1003.45
2022-12-12T04:52:32.601Z,1003.40
2022-12-12T04:53:32.611Z,1003.37
2022-12-12T04:54:32.614Z,1003.39
2022-12-12T04:55:32.626Z,1003.39
2022-12-12T04:56:32.627Z,1003.43
2022-12-12T04:57:32.634Z,1003.40
2022-12-12T04:58:32.640Z,1003.41
2022-12-12T04:59:32.647Z,1003.46
2022-12-12T05:00:32.653Z,1003.48
2022-12-12T05:01:32.713Z,1003.48
2022-12-12T05:02:32.695Z,1003.47
2022-12-12T05:03:32.670Z,1003.46
2022-12-12T05:04:32.680Z,1003.47
2022-12-12T05:05:32.684Z,1003.47
2022-12-12T05:06:32.690Z,1003.45
2022-12-12T05:07:37.887Z,1003.46
2022-12-12T05:08:32.741Z,1003.47
2022-12-12T05:09:32.709Z,1003.50
2022-12-12T05:10:32.716Z,1003.48
2022-12-12T05:11:32.724Z,1003.52
2022-12-12T05:12:32.731Z,1003.52
2022-12-12T05:13:32.738Z,1003.51
2022-12-12T05:14:32.743Z,1003.53
2022-12-12T05:15:32.750Z,1003.57
2022-12-12T05:16:32.899Z,1003.51
2022-12-12T05:17:32.761Z,1003.52
2022-12-12T05:18:32.771Z,1003.57
2022-12-12T05:19:32.779Z,1003.56
2022-12-12T05:20:32.781Z,1003.52
2022-12-12T05:21:32.788Z,1003.54
2022-12-12T05:22:32.797Z,1003.54
2022-12-12T05:23:34.776Z,1003.55
2022-12-12T05:24:32.807Z,1003.55
2022-12-12T05:25:32.813Z,1003.55
2022-12-12T05:26:32.819Z,1003.58
2022-12-12T05:27:32.828Z,1003.62
2022-12-12T05:28:32.836Z,1003.59
2022-12-12T05:29:32.838Z,1003.63
2022-12-12T05:30:32.865Z,1003.62
2022-12-12T05:31:32.851Z,1003.61
2022-12-12T05:32:32.863Z,1003.62
2022-12-12T05:33:32.868Z,1003.57
2022-12-12T05:34:32.874Z,1003.61
2022-12-12T05:35:32.879Z,1003.59
2022-12-12T05:36:32.886Z,1003.58
2022-12-12T05:37:32.888Z,1003.54
2022-12-12T05:38:32.898Z,1003.56
2022-12-12T05:39:32.902Z,1003.56
2022-12-12T05:40:32.908Z,1003.58
2022-12-12T05:41:32.914Z,1003.55
2022-12-12T05:42:32.922Z,1003.59
2022-12-12T05:43:32.928Z,1003.56
2022-12-12T05:44:32.933Z,1003.58
2022-12-12T05:45:32.940Z,1003.59
2022-12-12T05:46:32.997Z,1003.57
2022-12-12T05:47:32.952Z,1003.61
2022-12-12T05:48:32.960Z,1003.54
2022-12-12T05:49:32.966Z,1003.63
2022-12-12T05:50:32.971Z,1003.59
2022-12-12T05:51:32.978Z,1003.61
2022-12-12T05:52:32.984Z,1003.64
2022-12-12T05:53:36.394Z,1003.62
2022-12-12T05:54:32.999Z,1003.63
2022-12-12T05:55:33.007Z,1003.63
2022-12-12T05:56:33.023Z,1003.61
2022-12-12T05:57:33.028Z,1003.60
2022-12-12T05:58:33.042Z,1003.64
2022-12-12T05:59:33.033Z,1003.63
2022-12-12T06:00:33.040Z,1003.64
2022-12-12T06:01:33.042Z,1003.64
2022-12-12T06:02:33.130Z,1003.67
2022-12-12T06:03:33.056Z,1003.65
2022-12-12T06:04:33.151Z,1003.65
2022-12-12T06:05:33.073Z,1003.62
2022-12-12T06:06:33.076Z,1003.65
2022-12-12T06:07:33.086Z,1003.66
2022-12-12T06:08:33.196Z,1003.64
2022-12-12T06:09:33.096Z,1003.70
2022-12-12T06:10:33.102Z,1003.65
2022-12-12T06:11:33.105Z,1003.68
2022-12-12T06:12:33.110Z,1003.65
2022-12-12T06:13:33.118Z,1003.70
2022-12-12T06:14:33.127Z,1003.68
2022-12-12T06:15:33.184Z,1003.69
2022-12-12T06:16:33.136Z,1003.67
2022-12-12T06:17:33.637Z,1003.72
2022-12-12T06:18:33.149Z,1003.67
2022-12-12T06:19:33.157Z,1003.70
2022-12-12T06:20:33.174Z,1003.69
2022-12-12T06:21:33.166Z,1003.67
2022-12-12T06:22:33.178Z,1003.70
2022-12-12T06:23:33.179Z,1003.70
2022-12-12T06:24:33.189Z,1003.67
2022-12-12T06:25:33.199Z,1003.67
2022-12-12T06:26:33.199Z,1003.70
2022-12-12T06:27:33.210Z,1003.79
2022-12-12T06:28:33.218Z,1003.77
2022-12-12T06:29:33.219Z,1003.72
2022-12-12T06:30:33.232Z,1003.73
2022-12-12T06:31:33.276Z,1003.77
2022-12-12T06:32:33.238Z,1003.75
2022-12-12T06:33:33.244Z,1003.76
2022-12-12T06:34:33.253Z,1003.78
2022-12-12T06:35:33.259Z,1003.79
2022-12-12T06:36:33.264Z,1003.80
2022-12-12T06:37:33.270Z,1003.82
2022-12-12T06:38:33.274Z,1003.89
2022-12-12T06:39:33.281Z,1003.90
2022-12-12T06:40:33.293Z,1003.88
2022-12-12T06:41:33.294Z,1003.88
2022-12-12T06:42:33.300Z,1003.90
2022-12-12T06:43:33.306Z,1003.90
2022-12-12T06:44:33.312Z,1003.90
2022-12-12T06:45:33.320Z,1003.95
2022-12-12T06:46:33.348Z,1003.95
2022-12-12T06:47:33.334Z,1003.91
2022-12-12T06:48:33.338Z,1003.94
2022-12-12T06:49:33.345Z,1003.94
2022-12-12T06:50:33.350Z,1003.97
2022-12-12T06:51:33.388Z,1003.98
2022-12-12T06:52:33.361Z,1003.98
2022-12-12T06:53:33.369Z,1004.02
2022-12-12T06:54:33.378Z,1004.00
2022-12-12T06:55:33.394Z,1003.96
2022-12-12T06:56:33.390Z,1004.04
2022-12-12T06:57:33.394Z,1003.99
2022-12-12T06:58:33.400Z,1004.04
2022-12-12T06:59:33.410Z,1003.99
2022-12-12T07:00:33.413Z,1004.07
2022-12-12T07:01:33.447Z,1004.01
2022-12-12T07:02:33.470Z,1004.02
2022-12-12T07:03:33.431Z,1004.06
2022-12-12T07:04:33.439Z,1004.02
2022-12-12T07:05:33.442Z,1004.03
2022-12-12T07:06:33.448Z,1004.01
2022-12-12T07:07:33.456Z,1004.08
2022-12-12T07:08:33.460Z,1004.07
2022-12-12T07:09:33.469Z,1004.12
2022-12-12T07:10:33.473Z,1004.08
2022-12-12T07:11:33.487Z,1004.07
2022-12-12T07:12:33.485Z,1004.07
2022-12-12T07:13:33.491Z,1004.14
2022-12-12T07:14:33.498Z,1004.05
2022-12-12T07:15:33.558Z,1004.07
2022-12-12T07:16:33.509Z,1004.09
2022-12-12T07:17:33.532Z,1004.12
2022-12-12T07:18:33.524Z,1004.14
2022-12-12T07:19:33.529Z,1004.15
2022-12-12T07:20:33.532Z,1004.14
2022-12-12T07:21:33.539Z,1004.20
2022-12-12T07:22:33.546Z,1004.20
2022-12-12T07:23:33.552Z,1004.20
2022-12-12T07:24:33.558Z,1004.25
2022-12-12T07:25:33.564Z,1004.22
2022-12-12T07:26:33.569Z,1004.24
2022-12-12T07:27:33.586Z,1004.24
2022-12-12T07:28:33.581Z,1004.25
2022-12-12T07:29:33.589Z,1004.25
2022-12-12T07:30:33.597Z,1004.29
2022-12-12T07:31:33.649Z,1004.28
2022-12-12T07:32:33.612Z,1004.24
2022-12-12T07:33:43.141Z,1004.27
2022-12-12T07:34:33.618Z,1004.27
2022-12-12T07:35:33.626Z,1004.30
2022-12-12T07:36:33.630Z,1004.29
2022-12-12T07:37:33.644Z,1004.27
2022-12-12T07:38:33.643Z,1004.30
2022-12-12T07:39:33.647Z,1004.34
2022-12-12T07:40:33.653Z,1004.27
2022-12-12T07:41:33.664Z,1004.29
2022-12-12T07:42:33.666Z,1004.32
2022-12-12T07:43:35.293Z,1004.32
2022-12-12T07:44:33.679Z,1004.36
2022-12-12T07:45:33.685Z,1004.36
2022-12-12T07:46:33.701Z,1004.36
2022-12-12T07:47:33.697Z,1004.36
2022-12-12T07:48:33.703Z,1004.36
2022-12-12T07:49:33.711Z,1004.43
2022-12-12T07:50:33.720Z,1004.39
2022-12-12T07:51:33.722Z,1004.44
2022-12-12T07:52:33.730Z,1004.38
2022-12-12T07:53:33.735Z,1004.39
2022-12-12T07:54:33.743Z,1004.41
2022-12-12T07:55:33.748Z,1004.48
2022-12-12T07:56:33.753Z,1004.44
2022-12-12T07:57:33.759Z,1004.40
2022-12-12T07:58:33.772Z,1004.47
2022-12-12T07:59:33.773Z,1004.49
2022-12-12T08:00:33.777Z,1004.47
2022-12-12T08:01:33.890Z,1004.49
2022-12-12T08:02:33.795Z,1004.47
2022-12-12T08:03:33.796Z,1004.53
2022-12-12T08:04:33.854Z,1004.51
2022-12-12T08:05:33.811Z,1004.48
2022-12-12T08:06:33.816Z,1004.52
2022-12-12T08:07:33.824Z,1004.52
2022-12-12T08:08:33.842Z,1004.54
2022-12-12T08:09:33.835Z,1004.56
2022-12-12T08:10:33.841Z,1004.53
2022-12-12T08:11:33.847Z,1004.62
2022-12-12T08:12:33.853Z,1004.53
2022-12-12T08:13:33.859Z,1004.61
2022-12-12T08:14:33.867Z,1004.61
2022-12-12T08:15:33.872Z,1004.58
2022-12-12T08:16:33.907Z,1004.64
2022-12-12T08:17:33.885Z,1004.65
2022-12-12T08:18:33.894Z,1004.63
2022-12-12T08:19:33.898Z,1004.70
2022-12-12T08:20:33.905Z,1004.71
2022-12-12T08:21:33.909Z,1004.71
2022-12-12T08:22:33.916Z,1004.74
2022-12-12T08:23:33.924Z,1004.73
2022-12-12T08:24:33.928Z,1004.74
2022-12-12T08:25:33.936Z,1004.72
2022-12-12T08:26:33.941Z,1004.75
2022-12-12T08:27:33.949Z,1004.82
2022-12-12T08:28:33.953Z,1004.78
2022-12-12T08:29:33.962Z,1004.74
2022-12-12T08:30:33.967Z,1004.82
2022-12-12T08:31:34.033Z,1004.85
2022-12-12T08:32:33.982Z,1004.81
2022-12-12T08:33:34.005Z,1004.82
2022-12-12T08:34:33.995Z,1004.80
2022-12-12T08:35:34.001Z,1004.82
2022-12-12T08:36:34.007Z,1004.83
2022-12-12T08:37:34.013Z,1004.80
2022-12-12T08:38:34.020Z,1004.83
2022-12-12T08:39:34.026Z,1004.84
2022-12-12T08:40:34.032Z,1004.79
2022-12-12T08:41:34.038Z,1004.86
2022-12-12T08:42:34.045Z,1004.84
2022-12-12T08:43:34.053Z,1004.84
2022-12-12T08:44:34.058Z,1004.86
2022-12-12T08:45:34.069Z,1004.87
2022-12-12T08:46:34.111Z,1004.90
2022-12-12T08:47:34.080Z,1004.92
2022-12-12T08:48:34.084Z,1004.94
2022-12-12T08:49:34.089Z,1004.87
2022-12-12T08:50:34.101Z,1004.96
2022-12-12T08:51:34.107Z,1004.97
2022-12-12T08:52:34.111Z,1004.99
2022-12-12T08:53:34.125Z,1005.00
2022-12-12T08:54:34.129Z,1005.04
2022-12-12T08:55:34.133Z,1005.07
2022-12-12T08:56:34.137Z,1005.04
2022-12-12T08:57:34.151Z,1005.04
2022-12-12T08:58:34.152Z,1005.09
2022-12-12T08:59:34.161Z,1005.10
2022-12-12T09:00:34.166Z,1005.09
2022-12-12T09:01:34.297Z,1005.11
2022-12-12T09:02:34.310Z,1005.14
2022-12-12T09:03:34.187Z,1005.14
2022-12-12T09:04:34.198Z,1005.16
2022-12-12T09:05:34.200Z,1005.14
2022-12-12T09:06:34.211Z,1005.21
2022-12-12T09:07:34.218Z,1005.19
2022-12-12T09:08:34.284Z,1005.19
2022-12-12T09:09:34.228Z,1005.19
2022-12-12T09:10:34.236Z,1005.22
2022-12-12T09:11:34.251Z,1005.23
2022-12-12T09:12:39.852Z,1005.23
2022-12-12T09:13:34.258Z,1005.25
2022-12-12T09:14:34.264Z,1005.27
2022-12-12T09:15:34.276Z,1005.28
2022-12-12T09:16:34.360Z,1005.27
2022-12-12T09:17:34.283Z,1005.30
2022-12-12T09:18:34.295Z,1005.29
2022-12-12T09:19:34.299Z,1005.31
2022-12-12T09:20:34.316Z,1005.33
2022-12-12T09:21:34.312Z,1005.36
2022-12-12T09:22:34.321Z,1005.34
2022-12-12T09:23:34.326Z,1005.28
2022-12-12T09:24:34.333Z,1005.36
2022-12-12T09:25:36.808Z,1005.34
2022-12-12T09:26:34.349Z,1005.35
2022-12-12T09:27:34.364Z,1005.36
2022-12-12T09:28:34.362Z,1005.34
2022-12-12T09:29:34.368Z,1005.41
2022-12-12T09:30:34.375Z,1005.41
2022-12-12T09:31:34.429Z,1005.41
2022-12-12T09:32:34.389Z,1005.37
2022-12-12T09:33:34.397Z,1005.41
2022-12-12T09:34:34.402Z,1005.38
2022-12-12T09:35:34.411Z,1005.38
2022-12-12T09:36:34.550Z,1005.37
2022-12-12T09:37:34.425Z,1005.34
2022-12-12T09:38:34.433Z,1005.32
2022-12-12T09:39:34.442Z,1005.33
2022-12-12T09:40:34.445Z,1005.31
2022-12-12T09:41:34.456Z,1005.35
2022-12-12T09:42:34.463Z,1005.28
2022-12-12T09:43:34.469Z,1005.32
2022-12-12T09:44:34.475Z,1005.31
2022-12-12T09:45:34.507Z,1005.33
2022-12-12T09:46:34.489Z,1005.30
2022-12-12T09:47:34.503Z,1005.34
2022-12-12T09:48:34.507Z,1005.33
2022-12-12T09:49:38.392Z,1005.32
2022-12-12T09:50:34.518Z,1005.29
2022-12-12T09:51:34.524Z,1005.33
2022-12-12T09:52:34.557Z,1005.30
2022-12-12T09:53:34.547Z,1005.35
2022-12-12T09:54:34.543Z,1005.35
2022-12-12T09:55:34.554Z,1005.33
2022-12-12T09:56:34.570Z,1005.34
2022-12-12T09:57:34.570Z,1005.34
2022-12-12T09:58:34.575Z,1005.31
2022-12-12T09:59:34.579Z,1005.35
2022-12-12T10:00:34.623Z,1005.34
2022-12-12T10:01:34.597Z,1005.33
2022-12-12T10:02:34.670Z,1005.34
2022-12-12T10:03:34.607Z,1005.29
2022-12-12T10:04:34.615Z,1005.30
2022-12-12T10:05:34.621Z,1005.28
2022-12-12T10:06:38.300Z,1005.33
2022-12-12T10:07:34.639Z,1005.33
2022-12-12T10:08:34.693Z,1005.32
2022-12-12T10:09:34.651Z,1005.28
2022-12-12T10:10:34.659Z,1005.32
2022-12-12T10:11:34.663Z,1005.27
2022-12-12T10:12:34.672Z,1005.28
2022-12-12T10:13:34.679Z,1005.28
2022-12-12T10:14:34.684Z,1005.30
2022-12-12T10:15:34.691Z,1005.31
2022-12-12T10:16:34.722Z,1005.33
2022-12-12T10:17:34.703Z,1005.29
2022-12-12T10:18:34.711Z,1005.34
2022-12-12T10:19:34.718Z,1005.34
2022-12-12T10:20:34.723Z,1005.32
2022-12-12T10:21:34.731Z,1005.33
2022-12-12T10:22:34.736Z,1005.33
2022-12-12T10:23:34.746Z,1005.42
2022-12-12T10:24:34.754Z,1005.42
2022-12-12T10:25:34.760Z,1005.39
2022-12-12T10:26:34.765Z,1005.34
2022-12-12T10:27:34.771Z,1005.36
2022-12-12T10:28:34.777Z,1005.38
2022-12-12T10:29:41.128Z,1005.40
2022-12-12T10:30:34.791Z,1005.35
2022-12-12T10:31:34.835Z,1005.37
2022-12-12T10:32:34.801Z,1005.42
2022-12-12T10:33:34.809Z,1005.44
2022-12-12T10:34:34.817Z,1005.41
2022-12-12T10:35:34.837Z,1005.40
2022-12-12T10:36:34.846Z,1005.48
2022-12-12T10:37:34.845Z,1005.41
2022-12-12T10:38:34.844Z,1005.49
2022-12-12T10:39:34.851Z,1005.46
2022-12-12T10:40:34.858Z,1005.41
2022-12-12T10:41:34.858Z,1005.44
2022-12-12T10:42:34.868Z,1005.37
2022-12-12T10:43:34.897Z,1005.44
2022-12-12T10:44:34.887Z,1005.39
2022-12-12T10:45:34.938Z,1005.41
2022-12-12T10:46:35.004Z,1005.40
2022-12-12T10:47:34.914Z,1005.44
2022-12-12T10:48:34.910Z,1005.37
2022-12-12T10:49:34.914Z,1005.39
2022-12-12T10:50:34.920Z,1005.34
2022-12-12T10:51:34.926Z,1005.37
2022-12-12T10:52:34.936Z,1005.38
2022-12-12T10:53:34.938Z,1005.38
2022-12-12T10:54:34.946Z,1005.40
2022-12-12T10:55:34.953Z,1005.40
2022-12-12T10:56:34.959Z,1005.43
2022-12-12T10:57:34.966Z,1005.46
2022-12-12T10:58:34.974Z,1005.43
2022-12-12T10:59:34.987Z,1005.39
2022-12-12T11:00:34.987Z,1005.42
2022-12-12T11:02:35.127Z,1005.41
2022-12-12T11:03:35.042Z,1005.42
2022-12-12T11:04:35.015Z,1005.38
2022-12-12T11:05:35.017Z,1005.41
2022-12-12T11:06:35.026Z,1005.38
2022-12-12T11:07:35.035Z,1005.38
2022-12-12T11:08:35.121Z,1005.33
2022-12-12T11:09:35.046Z,1005.38
2022-12-12T11:10:35.057Z,1005.36
2022-12-12T11:11:35.058Z,1005.36
2022-12-12T11:12:35.064Z,1005.38
2022-12-12T11:13:35.073Z,1005.42
2022-12-12T11:14:35.078Z,1005.39
2022-12-12T11:15:35.086Z,1005.43
2022-12-12T11:16:35.135Z,1005.43
2022-12-12T11:17:35.098Z,1005.46
2022-12-12T11:18:35.106Z,1005.43
2022-12-12T11:19:35.113Z,1005.43
2022-12-12T11:20:35.121Z,1005.41
2022-12-12T11:21:35.127Z,1005.42
2022-12-12T11:22:35.129Z,1005.46
2022-12-12T11:23:35.139Z,1005.38
2022-12-12T11:24:35.144Z,1005.42
2022-12-12T11:25:35.150Z,1005.36
2022-12-12T11:26:35.155Z,1005.40
2022-12-12T11:27:35.165Z,1005.39
2022-12-12T11:28:35.169Z,1005.39
2022-12-12T11:29:35.175Z,1005.38
2022-12-12T11:30:35.182Z,1005.35
2022-12-12T11:31:35.250Z,1005.36
2022-12-12T11:32:35.196Z,1005.34
2022-12-12T11:33:35.210Z,1005.36
2022-12-12T11:34:35.206Z,1005.36
2022-12-12T11:35:35.212Z,1005.37
2022-12-12T11:36:35.217Z,1005.30
2022-12-12T11:37:35.224Z,1005.39
2022-12-12T11:38:35.232Z,1005.35
2022-12-12T11:39:35.238Z,1005.45
2022-12-12T11:40:35.246Z,1005.37
2022-12-12T11:41:35.249Z,1005.46
2022-12-12T11:42:35.254Z,1005.38
2022-12-12T11:43:35.263Z,1005.42
2022-12-12T11:44:35.269Z,1005.41
2022-12-12T11:45:35.337Z,1005.39
2022-12-12T11:46:35.280Z,1005.40
2022-12-12T11:47:35.287Z,1005.43
2022-12-12T11:48:35.293Z,1005.45
2022-12-12T11:49:35.298Z,1005.46
2022-12-12T11:50:35.305Z,1005.45
2022-12-12T11:51:35.320Z,1005.45
2022-12-12T11:52:35.318Z,1005.44
2022-12-12T11:53:35.324Z,1005.48
2022-12-12T11:54:35.329Z,1005.48
2022-12-12T11:55:35.336Z,1005.50
2022-12-12T11:56:35.340Z,1005.50
2022-12-12T11:57:35.348Z,1005.48
2022-12-12T11:58:35.356Z,1005.53
2022-12-12T11:59:35.361Z,1005.50
2022-12-12T12:00:35.366Z,1005.49
2022-12-12T12:01:35.376Z,1005.50
2022-12-12T12:02:35.380Z,1005.50
2022-12-12T12:03:35.419Z,1005.51
2022-12-12T12:04:35.424Z,1005.47
2022-12-12T12:05:35.401Z,1005.55
2022-12-12T12:06:35.410Z,1005.49